Time;durP1;ratioP1;P1;durP2;ratioP2;P2;SDS_P1;SDS_P2;PMS_P1;PMS_P2;Temp;Humidity;BMP_temperature;BMP_pressure;BME280_temperature;BME280_humidity;BME280_pressure;Samples;Min_cycle;Max_cycle;Signal;HPM_P1;HPM_P2
2021/01/17 00:00:16;;;;;;;39.98;20.25;;;;;;;-7.97;69.74;100445.43;125444;1127;22444;-76
2021/01/17 00:03:04;;;;;;;39.78;21.07;;;;;;;-7.97;69.57;100453.95;125384;1126;22444;-76
2021/01/17 00:05:32;;;;;;;38.02;22.25;;;;;;;-7.97;69.56;100453.13;125482;1125;22454;-76
2021/01/17 00:08:06;;;;;;;36.73;20.40;;;;;;;-7.99;69.58;100460.87;125375;1127;22451;-75
2021/01/17 00:10:35;;;;;;;29.30;18.65;;;;;;;-8.01;69.76;100449.81;125362;1127;22447;-75
2021/01/17 00:13:04;;;;;;;39.60;21.80;;;;;;;-8.01;69.38;100465.20;125417;1125;23248;-75
2021/01/17 00:15:33;;;;;;;33.20;17.42;;;;;;;-8.06;69.33;100467.08;125468;1127;22436;-75
2021/01/17 00:18:01;;;;;;;36.90;19.92;;;;;;;-8.14;69.20;100469.02;125400;1127;22583;-75
2021/01/17 00:20:30;;;;;;;47.48;23.12;;;;;;;-8.17;69.25;100479.37;125365;1127;22445;-75
2021/01/17 00:23:04;;;;;;;42.13;23.20;;;;;;;-8.22;69.25;100476.95;125370;1127;22545;-76
2021/01/17 00:25:33;;;;;;;36.85;20.80;;;;;;;-8.26;68.96;100479.63;125477;1127;22480;-75
2021/01/17 00:28:03;;;;;;;36.58;18.73;;;;;;;-8.31;69.06;100479.78;125418;1127;22438;-75
2021/01/17 00:30:33;;;;;;;35.78;18.07;;;;;;;-8.36;69.17;100486.78;125373;1127;22887;-75
2021/01/17 00:33:03;;;;;;;34.83;17.20;;;;;;;-8.44;69.09;100487.02;125427;1127;24252;-75
2021/01/17 00:35:33;;;;;;;33.15;17.37;;;;;;;-8.48;68.66;100500.80;125418;1127;22534;-75
2021/01/17 00:38:02;;;;;;;35.83;19.57;;;;;;;-8.51;69.17;100502.62;125426;1126;22446;-75
2021/01/17 00:40:32;;;;;;;40.43;18.02;;;;;;;-8.55;68.94;100510.38;125428;1126;22440;-74
2021/01/17 00:43:01;;;;;;;36.90;18.40;;;;;;;-8.61;68.57;100505.43;125375;1129;22580;-75
2021/01/17 00:45:30;;;;;;;26.50;15.13;;;;;;;-8.67;68.94;100513.28;125444;1126;22441;-75
2021/01/17 00:47:58;;;;;;;26.70;15.08;;;;;;;-8.77;68.75;100514.41;125391;1126;24556;-75
2021/01/17 00:50:28;;;;;;;29.65;15.15;;;;;;;-8.85;68.24;100509.51;125377;1126;22508;-76
2021/01/17 00:52:57;;;;;;;33.47;17.40;;;;;;;-8.96;68.12;100508.97;125429;1127;22440;-76
2021/01/17 00:55:36;;;;;;;39.45;20.23;;;;;;;-9.05;68.36;100507.48;125433;1125;22410;-76
2021/01/17 00:58:07;;;;;;;42.33;20.30;;;;;;;-9.09;68.66;100515.28;125396;1127;22472;-75
2021/01/17 01:00:35;;;;;;;52.43;23.65;;;;;;;-9.12;68.46;100515.36;125401;1129;22442;-76
2021/01/17 01:03:19;;;;;;;69.90;31.90;;;;;;;-9.18;68.63;100507.84;125464;1127;22570;-76
2021/01/17 01:05:47;;;;;;;84.70;40.63;;;;;;;-9.23;68.63;100515.61;125458;1127;22436;-76
2021/01/17 01:08:16;;;;;;;79.53;35.92;;;;;;;-9.32;68.23;100519.27;125405;1127;23532;-76
2021/01/17 01:10:44;;;;;;;44.70;23.90;;;;;;;-9.38;68.57;100523.69;125488;1126;22447;-75
2021/01/17 01:13:13;;;;;;;32.42;19.02;;;;;;;-9.49;67.78;100516.28;125379;1127;22455;-74
2021/01/17 01:15:41;;;;;;;33.40;18.73;;;;;;;-9.62;67.73;100512.34;125502;1126;24377;-75
2021/01/17 01:18:10;;;;;;;30.48;18.37;;;;;;;-9.73;67.77;100522.80;125333;1126;22462;-75
2021/01/17 01:20:38;;;;;;;34.73;17.42;;;;;;;-9.84;67.60;100525.61;125378;1125;22538;-75
2021/01/17 01:23:06;;;;;;;33.05;17.50;;;;;;;-9.92;67.92;100524.12;125384;1127;22451;-75
2021/01/17 01:25:34;;;;;;;27.55;16.48;;;;;;;-10.02;67.88;100524.31;125585;1125;22498;-75
2021/01/17 01:28:02;;;;;;;33.28;17.95;;;;;;;-10.08;67.50;100526.16;125372;1129;22501;-75
2021/01/17 01:30:30;;;;;;;43.92;21.50;;;;;;;-10.18;67.65;100525.52;125347;1127;22935;-76
2021/01/17 01:32:58;;;;;;;50.33;24.27;;;;;;;-10.22;67.67;100529.02;125373;1126;24313;-76
2021/01/17 01:35:27;;;;;;;50.73;25.32;;;;;;;-10.26;67.79;100530.83;125401;1126;22451;-76
2021/01/17 01:37:55;;;;;;;47.80;25.10;;;;;;;-10.30;67.86;100529.19;125570;1126;24313;-76
2021/01/17 01:40:23;;;;;;;61.92;28.83;;;;;;;-10.35;68.11;100535.29;125382;1127;22466;-76
2021/01/17 01:42:51;;;;;;;58.63;29.37;;;;;;;-10.41;67.85;100526.03;125367;1126;22499;-76
2021/01/17 01:45:19;;;;;;;45.75;24.40;;;;;;;-10.43;68.02;100530.31;125398;1127;22538;-76
2021/01/17 01:47:50;;;;;;;49.87;21.93;;;;;;;-10.49;68.10;100525.36;125389;1127;22525;-76
2021/01/17 01:50:19;;;;;;;43.48;22.35;;;;;;;-10.54;67.52;100532.25;125369;1127;23214;-75
2021/01/17 01:52:49;;;;;;;48.38;22.07;;;;;;;-10.61;67.74;100531.53;125383;1127;22881;-76
2021/01/17 01:55:17;;;;;;;48.60;23.42;;;;;;;-10.63;67.51;100540.92;125366;1126;24581;-75
2021/01/17 01:57:45;;;;;;;39.80;20.85;;;;;;;-10.66;68.34;100541.01;125428;1127;22453;-75
2021/01/17 02:00:15;;;;;;;43.78;22.30;;;;;;;-10.68;68.01;100547.84;125447;1127;22468;-75
2021/01/17 02:02:46;;;;;;;42.55;21.73;;;;;;;-10.70;67.78;100550.41;125389;1126;22445;-75
2021/01/17 02:05:15;;;;;;;50.75;23.60;;;;;;;-10.74;68.31;100548.79;125395;1127;22502;-74
2021/01/17 02:08:20;;;;;;;44.30;20.57;;;;;;;-10.78;67.86;100552.28;125383;1126;22455;-75
2021/01/17 02:10:48;;;;;;;56.10;26.52;;;;;;;-10.83;68.21;100559.16;125364;1126;23389;-74
2021/01/17 02:13:57;;;;;;;35.28;18.73;;;;;;;-10.88;67.80;100550.77;125446;1126;24310;-75
2021/01/17 02:16:25;;;;;;;38.17;20.60;;;;;;;-10.99;67.56;100545.86;124956;1129;22465;-74
2021/01/17 02:18:54;;;;;;;33.08;17.60;;;;;;;-11.06;67.82;100541.74;124991;1130;22463;-74
2021/01/17 02:21:22;;;;;;;40.33;18.55;;;;;;;-11.09;67.66;100546.90;124953;1129;22476;-73
2021/01/17 02:24:06;;;;;;;31.85;18.12;;;;;;;-11.09;67.54;100556.23;124972;1130;22482;-74
2021/01/17 02:26:34;;;;;;;36.23;17.48;;;;;;;-11.17;67.49;100556.38;124982;1130;25017;-74
2021/01/17 02:29:02;;;;;;;34.13;18.93;;;;;;;-11.22;67.33;100555.63;124975;1130;22476;-73
2021/01/17 02:31:34;;;;;;;38.05;18.45;;;;;;;-11.27;67.98;100557.39;125017;1129;23470;-74
2021/01/17 02:34:04;;;;;;;;;;;;;;;-11.38;67.26;100552.48;124969;1130;23318;-74
2021/01/17 02:37:02;;;;;;;33.80;16.75;;;;;;;-11.48;67.55;100561.98;125018;1130;21370;-74
2021/01/17 02:40:17;;;;;;;32.75;17.87;;;;;;;-11.55;67.92;100568.05;124967;1129;22467;-74
2021/01/17 02:42:48;;;;;;;30.32;18.73;;;;;;;-11.63;67.41;100567.30;124873;1132;22463;-74
2021/01/17 02:45:16;;;;;;;31.27;17.98;;;;;;;-11.64;67.51;100573.27;124579;1133;22451;-74
2021/01/17 02:47:44;;;;;;;35.38;19.12;;;;;;;-11.66;67.98;100575.86;124827;1133;22611;-74
2021/01/17 02:50:13;;;;;;;39.08;20.48;;;;;;;-11.70;67.46;100570.80;124878;1130;24354;-75
2021/01/17 02:52:49;;;;;;;39.88;22.13;;;;;;;-11.75;67.39;100580.24;124857;1132;22457;-74
2021/01/17 02:55:20;;;;;;;37.28;21.60;;;;;;;-11.79;67.78;100578.58;124932;1130;22463;-74
2021/01/17 02:57:54;;;;;;;35.48;18.73;;;;;;;-11.82;68.06;100584.58;124951;1130;22935;-74
2021/01/17 03:00:24;;;;;;;36.95;20.25;;;;;;;-11.85;67.96;100584.66;124948;1129;22455;-73
2021/01/17 03:02:57;;;;;;;37.25;19.87;;;;;;;-11.86;68.23;100582.95;124932;1129;22457;-74
2021/01/17 03:05:26;;;;;;;38.23;19.95;;;;;;;-11.87;67.74;100583.82;124950;1130;22529;-74
2021/01/17 03:07:57;;;;;;;39.00;19.95;;;;;;;-11.90;68.09;100577.05;124907;1130;22557;-74
2021/01/17 03:10:25;;;;;;;33.92;20.10;;;;;;;-11.94;67.39;100580.52;125028;1130;22979;-73
2021/01/17 03:12:53;;;;;;;33.83;20.23;;;;;;;-12.00;67.58;100575.50;124877;1130;22475;-74
2021/01/17 03:15:21;;;;;;;34.13;19.85;;;;;;;-12.01;67.58;100580.63;124901;1130;22476;-74
2021/01/17 03:17:49;;;;;;;36.08;19.17;;;;;;;-12.07;68.07;100581.54;124893;1130;22548;-74
2021/01/17 03:20:18;;;;;;;31.65;18.45;;;;;;;-12.13;67.40;100576.52;125246;1130;22475;-74
2021/01/17 03:22:46;;;;;;;38.55;21.48;;;;;;;-12.19;67.64;100581.72;125344;1127;22457;-74
2021/01/17 03:25:14;;;;;;;36.60;20.65;;;;;;;-12.22;67.96;100589.39;125314;1128;22465;-74
2021/01/17 03:27:42;;;;;;;41.08;20.15;;;;;;;-12.24;67.92;100591.94;125371;1127;22482;-74
2021/01/17 03:30:11;;;;;;;32.67;19.92;;;;;;;-12.26;67.96;100587.72;125394;1127;22454;-74
2021/01/17 03:32:39;;;;;;;36.80;21.12;;;;;;;-12.26;68.03;100591.13;125426;1127;22758;-74
2021/01/17 03:35:09;;;;;;;35.92;19.65;;;;;;;-12.27;68.39;100596.23;125438;1129;22466;-74
2021/01/17 03:37:38;;;;;;;33.00;20.02;;;;;;;-12.31;67.56;100592.04;125412;1127;22457;-74
2021/01/17 03:40:07;;;;;;;38.95;20.55;;;;;;;-12.36;67.61;100590.40;125417;1127;22483;-74
2021/01/17 03:42:35;;;;;;;42.75;20.20;;;;;;;-12.42;67.93;100590.47;125422;1127;22458;-74
2021/01/17 03:45:04;;;;;;;47.20;20.73;;;;;;;-12.45;68.19;100590.50;125379;1126;24278;-73
2021/01/17 03:47:32;;;;;;;43.50;21.80;;;;;;;-12.52;67.48;100586.34;125664;1125;25222;-74
2021/01/17 03:50:01;;;;;;;45.15;23.22;;;;;;;-12.58;68.03;100594.03;125397;1125;24279;-75
2021/01/17 03:52:31;;;;;;;44.05;22.90;;;;;;;-12.62;68.00;100597.48;125421;1127;22476;-75
2021/01/17 03:54:59;;;;;;;42.80;21.97;;;;;;;-12.70;67.85;100594.16;125393;1127;23509;-74
2021/01/17 03:57:27;;;;;;;43.85;21.33;;;;;;;-12.74;67.69;100602.69;125408;1127;22457;-75
2021/01/17 03:59:55;;;;;;;42.58;21.80;;;;;;;-12.82;67.95;100601.06;125401;1127;22538;-75
2021/01/17 04:02:23;;;;;;;41.75;21.97;;;;;;;-12.87;68.30;100602.80;125367;1128;22459;-74
2021/01/17 04:04:51;;;;;;;43.68;22.13;;;;;;;-12.91;67.98;100600.30;125367;1127;22441;-75
2021/01/17 04:07:19;;;;;;;42.95;23.85;;;;;;;-12.97;67.98;100605.45;125403;1127;22450;-75
2021/01/17 04:09:47;;;;;;;50.80;26.45;;;;;;;-13.05;67.81;100611.45;125400;1129;22436;-74
2021/01/17 04:12:16;;;;;;;46.88;24.07;;;;;;;-13.09;68.00;100611.50;125435;1125;22418;-75
2021/01/17 04:14:43;;;;;;;48.50;26.20;;;;;;;-13.12;67.81;100611.52;125380;1127;22441;-75
2021/01/17 04:17:12;;;;;;;52.60;25.82;;;;;;;-13.14;68.07;100621.69;125390;1127;22525;-74
2021/01/17 04:19:40;;;;;;;46.10;25.02;;;;;;;-13.16;68.48;100608.16;125405;1125;22424;-75
2021/01/17 04:22:09;;;;;;;45.40;25.65;;;;;;;-13.16;68.02;100607.29;125399;1126;22517;-74
2021/01/17 04:24:37;;;;;;;45.10;26.45;;;;;;;-13.19;68.39;100615.81;125370;1127;22441;-74
2021/01/17 04:27:05;;;;;;;50.63;25.95;;;;;;;-13.22;68.40;100610.75;125556;1125;24866;-75
2021/01/17 04:29:32;;;;;;;46.87;26.00;;;;;;;-13.26;68.03;100610.80;125429;1127;22538;-74
2021/01/17 04:32:01;;;;;;;43.08;25.70;;;;;;;-13.32;68.41;100615.09;124978;1126;24313;-74
2021/01/17 04:34:30;;;;;;;47.27;27.35;;;;;;;-13.35;68.50;100615.11;125414;1127;22437;-74
2021/01/17 04:36:58;;;;;;;50.38;27.58;;;;;;;-13.38;68.51;100620.22;125435;1127;23223;-75
2021/01/17 04:39:26;;;;;;;57.40;27.77;;;;;;;-13.37;68.16;100618.52;125362;1127;22441;-75
2021/01/17 04:41:57;;;;;;;45.12;23.70;;;;;;;-13.36;68.32;100612.56;125385;1126;24383;-75
2021/01/17 04:44:35;;;;;;;51.00;29.30;;;;;;;-13.39;68.69;100616.00;125653;1126;24485;-75
2021/01/17 04:47:05;;;;;;;45.65;25.72;;;;;;;-13.40;68.56;100615.99;125604;1126;23687;-75
2021/01/17 04:49:38;;;;;;;44.33;24.32;;;;;;;-13.41;68.27;100627.86;125414;1126;24558;-76
2021/01/17 04:52:14;;;;;;;51.88;27.13;;;;;;;-13.43;68.71;100619.39;125391;1126;23282;-76
2021/01/17 04:54:42;;;;;;;48.40;26.35;;;;;;;-13.44;68.46;100627.88;125457;1126;22459;-76
2021/01/17 04:57:56;;;;;;;45.70;26.20;;;;;;;-13.48;68.37;100636.38;125371;1127;22468;-75
2021/01/17 05:00:29;;;;;;;54.33;27.77;;;;;;;-13.52;68.74;100643.19;125425;1126;22438;-75
2021/01/17 05:03:28;;;;;;;57.43;32.77;;;;;;;-13.51;68.61;100651.64;125375;1127;25065;-77
2021/01/17 05:06:28;;;;;;;66.97;32.42;;;;;;;-13.52;68.60;100650.81;125423;1126;22435;-75
2021/01/17 05:09:05;;;;;;;56.50;29.67;;;;;;;-13.54;68.17;100652.50;125409;1127;22456;-74
2021/01/17 05:11:39;;;;;;;51.35;28.67;;;;;;;-13.54;68.42;100661.83;125381;1130;22421;-73
2021/01/17 05:14:20;;;;;;;53.30;30.30;;;;;;;-13.55;68.64;100660.15;125419;1125;22436;-76
2021/01/17 05:16:49;;;;;;;64.82;32.65;;;;;;;-13.54;68.21;100664.36;125404;1127;22456;-75
2021/01/17 05:19:19;;;;;;;68.20;35.45;;;;;;;-13.55;68.87;100670.31;125415;1126;24234;-75
2021/01/17 05:21:54;;;;;;;65.35;35.23;;;;;;;-13.53;68.79;100672.00;125436;1127;22443;-75
2021/01/17 05:24:22;;;;;;;69.58;36.75;;;;;;;-13.49;68.80;100685.53;125363;1127;22438;-75
2021/01/17 05:26:53;;;;;;;72.17;34.40;;;;;;;-13.48;68.37;100684.66;125404;1129;22457;-79
2021/01/17 05:29:27;;;;;;;64.40;33.15;;;;;;;-13.49;68.71;100688.06;125658;1127;22458;-78
2021/01/17 05:32:01;;;;;;;62.40;33.88;;;;;;;-13.48;68.48;100691.45;125397;1127;22506;-75
2021/01/17 05:34:32;;;;;;;74.07;40.15;;;;;;;-13.44;69.07;100698.20;125474;1129;22473;-75
2021/01/17 05:37:13;;;;;;;81.17;43.38;;;;;;;-13.42;68.55;100693.95;125335;1126;24680;-75
2021/01/17 05:40:05;;;;;;;72.87;42.73;;;;;;;-13.39;68.86;100701.53;125357;1127;22445;-75
2021/01/17 05:42:40;;;;;;;;;;;;;;;-13.37;68.99;100707.47;125396;1126;22441;-75
2021/01/17 05:45:19;;;;;;;67.50;35.45;;;;;;;-13.38;68.69;100721.03;125432;1126;22825;-75
2021/01/17 05:47:57;;;;;;;78.07;40.52;;;;;;;-13.36;69.06;100710.02;125420;1126;22830;-75
2021/01/17 05:50:28;;;;;;;92.08;41.70;;;;;;;-13.35;68.73;100703.23;125445;1126;22511;-74
2021/01/17 05:53:03;;;;;;;67.12;38.45;;;;;;;-13.33;68.94;100707.42;125443;1126;22476;-75
2021/01/17 05:55:36;;;;;;;67.32;34.00;;;;;;;-13.35;69.06;100708.31;125553;1127;22752;-75
2021/01/17 05:58:31;;;;;;;72.37;37.10;;;;;;;-13.39;68.73;100704.08;125418;1126;22454;-75
2021/01/17 06:01:14;;;;;;;73.87;38.13;;;;;;;-13.45;68.27;100702.44;125458;1125;25888;-75
2021/01/17 06:03:52;;;;;;;63.50;31.75;;;;;;;-13.51;68.81;100702.47;125377;1129;22450;-75
2021/01/17 06:06:31;;;;;;;65.60;34.38;;;;;;;-13.56;68.21;100706.71;125435;1127;22440;-75
2021/01/17 06:09:01;;;;;;;62.40;32.28;;;;;;;-13.62;68.71;100706.77;125347;1129;22464;-75
2021/01/17 06:11:30;;;;;;;53.77;31.27;;;;;;;-13.66;68.12;100702.53;125396;1128;22464;-74
2021/01/17 06:14:01;;;;;;;56.13;29.43;;;;;;;-13.72;68.05;100703.42;125454;1125;24552;-75
2021/01/17 06:16:34;;;;;;;55.12;29.98;;;;;;;-13.80;68.37;100700.89;125644;1126;22430;-75
2021/01/17 06:19:12;;;;;;;56.05;30.20;;;;;;;-13.87;68.34;100703.48;125454;1127;22515;-74
2021/01/17 06:21:48;;;;;;;51.57;29.63;;;;;;;-13.93;68.08;100701.80;125419;1126;22545;-74
2021/01/17 06:24:17;;;;;;;66.05;34.23;;;;;;;-13.98;68.47;100705.22;125443;1125;22434;-75
2021/01/17 06:26:53;;;;;;;61.30;29.77;;;;;;;-13.98;68.46;100711.14;125430;1127;22437;-75
2021/01/17 06:29:35;;;;;;;59.33;30.40;;;;;;;-13.94;69.08;100711.97;125419;1127;22463;-76
2021/01/17 06:32:19;;;;;;;67.15;33.02;;;;;;;-13.91;69.05;100707.72;125482;1125;22491;-74
2021/01/17 06:34:52;;;;;;;57.03;30.27;;;;;;;-13.89;68.94;100700.09;125410;1127;22456;-74
2021/01/17 06:37:24;;;;;;;61.68;32.78;;;;;;;-13.86;69.37;100702.62;125379;1127;22436;-74
2021/01/17 06:39:58;;;;;;;53.90;30.55;;;;;;;-13.84;69.42;100719.55;125408;1127;22437;-75
2021/01/17 06:42:26;;;;;;;57.40;30.80;;;;;;;-13.78;69.14;100729.69;125425;1126;24559;-74
2021/01/17 06:44:54;;;;;;;77.22;39.35;;;;;;;-13.73;68.78;100731.35;125368;1127;22557;-74
2021/01/17 06:47:27;;;;;;;75.60;41.73;;;;;;;-13.67;69.66;100746.58;125385;1127;22517;-74
2021/01/17 06:49:56;;;;;;;73.45;35.13;;;;;;;-13.57;69.09;100753.31;125386;1127;22450;-75
2021/01/17 06:52:24;;;;;;;59.25;34.85;;;;;;;-13.48;69.44;100747.35;125408;1127;22460;-74
2021/01/17 06:54:53;;;;;;;58.23;34.98;;;;;;;-13.37;69.79;100758.30;125425;1127;22434;-75
2021/01/17 06:57:21;;;;;;;66.10;36.77;;;;;;;-13.30;69.74;100759.95;125425;1127;22455;-75
2021/01/17 06:59:51;;;;;;;64.90;37.23;;;;;;;-13.24;69.58;100762.47;125412;1128;22455;-74
2021/01/17 07:02:25;;;;;;;69.95;40.28;;;;;;;-13.19;69.27;100775.11;125422;1125;22498;-77
2021/01/17 07:04:56;;;;;;;75.72;41.02;;;;;;;-13.16;69.63;100764.92;125644;1127;25066;-74
2021/01/17 07:07:49;;;;;;;88.78;47.53;;;;;;;-13.17;68.90;100775.95;125432;1126;22422;-73
2021/01/17 07:10:23;;;;;;;108.90;52.95;;;;;;;-13.15;69.02;100776.80;125490;1126;24313;-74
2021/01/17 07:13:04;;;;;;;97.08;46.88;;;;;;;-13.10;69.20;100778.45;125581;1126;22464;-73
2021/01/17 07:15:43;;;;;;;77.12;42.08;;;;;;;-13.09;69.20;100785.24;125497;1127;22431;-73
2021/01/17 07:18:16;;;;;;;78.30;42.17;;;;;;;-13.10;68.78;100788.62;125602;1129;22431;-73
2021/01/17 07:20:49;;;;;;;80.97;44.80;;;;;;;-13.08;68.85;100783.55;125509;1126;22452;-79
2021/01/17 07:23:19;;;;;;;85.70;41.50;;;;;;;-13.07;68.73;100787.77;125417;1127;22489;-75
2021/01/17 07:25:49;;;;;;;71.50;39.60;;;;;;;-13.07;69.25;100792.85;125370;1127;22444;-74
2021/01/17 07:28:20;;;;;;;67.37;39.42;;;;;;;-13.08;69.29;100804.72;125377;1128;22436;-73
2021/01/17 07:30:59;;;;;;;71.33;37.87;;;;;;;-13.10;69.21;100815.75;125357;1129;22457;-74
2021/01/17 07:33:38;;;;;;;60.65;34.43;;;;;;;-13.08;68.87;100803.88;125396;1126;22532;-74
2021/01/17 07:36:10;;;;;;;85.90;47.53;;;;;;;-13.03;69.25;100802.14;125392;1127;22780;-74
2021/01/17 07:38:45;;;;;;;88.87;43.13;;;;;;;-12.98;69.38;100810.61;125405;1127;22438;-74
2021/01/17 07:41:14;;;;;;;103.93;47.30;;;;;;;-12.94;69.47;100809.73;125364;1125;23242;-76
2021/01/17 07:43:45;;;;;;;94.25;44.77;;;;;;;-12.94;68.81;100807.19;125412;1126;22434;-74
2021/01/17 07:46:17;;;;;;;86.87;43.92;;;;;;;-12.90;69.10;100820.73;125482;1127;22926;-74
2021/01/17 07:48:49;;;;;;;71.07;38.33;;;;;;;-12.86;69.12;100814.77;125427;1127;22452;-73
2021/01/17 07:51:18;;;;;;;61.77;33.18;;;;;;;-12.87;69.26;100813.08;125516;1127;22459;-73
2021/01/17 07:54:19;;;;;;;66.30;36.33;;;;;;;-12.87;69.23;100810.53;125440;1127;22748;-73
2021/01/17 07:56:49;;;;;;;63.93;39.20;;;;;;;-12.92;68.97;100813.13;125424;1129;22540;-74
2021/01/17 07:59:25;;;;;;;66.12;37.42;;;;;;;-12.97;68.88;100821.62;125466;1127;22446;-74
2021/01/17 08:01:56;;;;;;;71.10;40.25;;;;;;;-12.93;68.52;100831.75;125413;1126;22438;-73
2021/01/17 08:04:27;;;;;;;62.93;38.60;;;;;;;-12.89;68.53;100819.89;125450;1128;22489;-74
2021/01/17 08:06:57;;;;;;;69.25;37.13;;;;;;;-12.84;68.91;100828.33;125437;1127;23339;-74
2021/01/17 08:09:48;;;;;;;59.65;33.10;;;;;;;-12.80;69.27;100825.74;125466;1125;22734;-74
2021/01/17 08:12:30;;;;;;;59.20;31.45;;;;;;;-12.75;68.70;100833.37;125381;1126;22436;-74
2021/01/17 08:15:19;;;;;;;67.10;34.20;;;;;;;-12.75;68.91;100835.07;125426;1127;22442;-73
2021/01/17 08:17:49;;;;;;;65.75;33.65;;;;;;;-12.76;68.71;100830.81;125378;1127;22433;-73
2021/01/17 08:20:25;;;;;;;62.17;34.30;;;;;;;-12.76;68.57;100838.45;125367;1127;22459;-73
2021/01/17 08:23:12;;;;;;;55.67;31.00;;;;;;;-12.80;68.78;100848.64;125383;1127;25366;-73
2021/01/17 08:25:51;;;;;;;60.05;31.75;;;;;;;-12.81;68.18;100844.41;125367;1127;22898;-73
2021/01/17 08:28:30;;;;;;;56.65;31.33;;;;;;;-12.87;68.20;100841.91;125419;1129;22538;-74
2021/01/17 08:30:58;;;;;;;63.58;32.67;;;;;;;-12.87;68.27;100846.15;125327;1126;24376;-74
2021/01/17 08:33:33;;;;;;;60.35;33.78;;;;;;;-12.83;68.44;100858.86;125387;1127;22454;-74
2021/01/17 08:36:01;;;;;;;75.83;44.60;;;;;;;-12.82;68.75;100852.91;125364;1125;24558;-74
2021/01/17 08:38:35;;;;;;;70.72;38.38;;;;;;;-12.85;67.89;100860.55;125636;1127;23442;-74
2021/01/17 08:41:04;;;;;;;72.60;37.35;;;;;;;-12.93;68.47;100854.65;125454;1126;22495;-73
2021/01/17 08:43:38;;;;;;;57.08;33.58;;;;;;;-12.92;68.28;100868.23;125415;1127;22617;-74
2021/01/17 08:46:08;;;;;;;53.60;32.73;;;;;;;-12.94;67.84;100862.30;125452;1127;24874;-73
2021/01/17 08:48:36;;;;;;;55.38;31.48;;;;;;;-12.91;68.76;100870.76;125603;1125;24588;-73
2021/01/17 08:51:11;;;;;;;54.88;32.55;;;;;;;-12.87;68.40;100867.34;125401;1127;22476;-74
2021/01/17 08:53:39;;;;;;;79.47;45.77;;;;;;;-12.81;68.15;100867.31;125372;1127;22459;-74
2021/01/17 08:56:10;;;;;;;72.85;41.25;;;;;;;-12.67;68.56;100879.11;125416;1127;23243;-74
2021/01/17 08:58:38;;;;;;;65.52;35.28;;;;;;;-12.52;68.78;100879.03;125399;1126;24233;-75
2021/01/17 09:01:08;;;;;;;70.85;39.48;;;;;;;-12.42;68.78;100888.30;125671;1125;22447;-75
2021/01/17 09:03:43;;;;;;;75.25;36.85;;;;;;;-12.37;68.72;100893.34;125405;1126;24362;-75
2021/01/17 09:06:12;;;;;;;72.17;38.35;;;;;;;-12.34;68.29;100899.26;125403;1126;22447;-75
2021/01/17 09:09:00;;;;;;;66.53;37.35;;;;;;;-12.29;68.89;100896.70;125393;1129;22538;-74
2021/01/17 09:11:29;;;;;;;62.62;36.88;;;;;;;-12.25;68.44;100903.45;125353;1127;22501;-74
2021/01/17 09:14:21;;;;;;;72.72;37.15;;;;;;;-12.18;68.71;100899.16;125427;1130;22464;-76
2021/01/17 09:16:57;;;;;;;;;;;;;;;-12.16;68.42;100910.16;125653;1127;23780;-75
2021/01/17 09:19:30;;;;;;;79.72;37.85;;;;;;;-12.12;68.15;100910.16;125354;1127;21310;-75
2021/01/17 09:22:02;;;;;;;66.90;37.17;;;;;;;-12.05;68.75;100910.95;125381;1127;22442;-75
2021/01/17 09:24:35;;;;;;;71.30;36.68;;;;;;;-11.98;67.99;100915.13;125421;1127;22560;-75
2021/01/17 09:27:08;;;;;;;61.28;35.43;;;;;;;-11.93;68.31;100918.47;125440;1127;22432;-74
2021/01/17 09:29:39;;;;;;;66.87;36.03;;;;;;;-11.81;68.80;100921.77;125472;1127;22551;-74
2021/01/17 09:32:15;;;;;;;71.10;40.12;;;;;;;-11.69;68.32;100917.41;125371;1127;22469;-74
2021/01/17 09:34:48;;;;;;;70.97;38.85;;;;;;;-11.59;68.57;100927.50;125715;1124;22483;-75
2021/01/17 09:37:19;;;;;;;75.03;44.03;;;;;;;-11.58;68.29;100927.50;125500;1127;22441;-74
2021/01/17 09:39:52;;;;;;;67.70;36.73;;;;;;;-11.52;68.10;100929.16;125483;1127;22447;-74
2021/01/17 09:42:23;;;;;;;68.63;37.50;;;;;;;-11.46;67.91;100942.70;125654;1125;22442;-74
2021/01/17 09:45:05;;;;;;;60.77;38.73;;;;;;;-11.38;67.81;100945.16;125438;1130;22538;-74
2021/01/17 09:47:36;;;;;;;77.08;40.80;;;;;;;-11.27;67.62;100943.34;125472;1125;22435;-74
2021/01/17 09:50:11;;;;;;;77.32;40.78;;;;;;;-11.25;67.94;100953.54;125629;1125;22454;-74
2021/01/17 09:52:42;;;;;;;70.85;38.08;;;;;;;-11.26;67.44;100959.48;125404;1126;22443;-74
2021/01/17 09:55:11;;;;;;;67.27;40.28;;;;;;;-11.22;67.64;100963.72;125400;1127;22451;-74
2021/01/17 09:57:41;;;;;;;73.78;40.48;;;;;;;-11.21;67.12;100958.58;125482;1127;22446;-74
2021/01/17 10:00:20;;;;;;;66.67;39.15;;;;;;;-11.21;66.62;100958.58;125423;1125;24648;-75
2021/01/17 10:02:49;;;;;;;62.43;37.03;;;;;;;-11.21;66.69;100957.74;125390;1125;23223;-75
2021/01/17 10:05:33;;;;;;;58.02;34.78;;;;;;;-11.17;66.44;100961.95;125437;1126;22437;-74
2021/01/17 10:08:14;;;;;;;76.10;37.10;;;;;;;-11.17;66.45;100961.95;125399;1127;22501;-75
2021/01/17 10:10:45;;;;;;;71.07;39.48;;;;;;;-11.18;66.04;100957.71;125406;1130;22534;-75
2021/01/17 10:13:14;;;;;;;66.17;39.05;;;;;;;-11.16;66.21;100961.95;125420;1127;22459;-75
2021/01/17 10:15:42;;;;;;;67.47;37.13;;;;;;;-11.06;66.69;100967.80;125446;1129;22766;-75
2021/01/17 10:18:10;;;;;;;59.67;35.08;;;;;;;-10.86;66.77;100961.60;125428;1127;22437;-75
2021/01/17 10:20:39;;;;;;;64.35;38.33;;;;;;;-10.79;66.18;100960.70;125398;1127;22466;-75
2021/01/17 10:23:16;;;;;;;64.15;36.80;;;;;;;-10.71;66.78;100961.44;125379;1126;24620;-74
2021/01/17 10:25:46;;;;;;;70.10;39.67;;;;;;;-10.58;66.82;100962.97;125649;1125;22433;-75
2021/01/17 10:28:16;;;;;;;90.45;46.90;;;;;;;-10.57;65.73;100967.20;125447;1127;22583;-74
2021/01/17 10:30:44;;;;;;;78.20;44.63;;;;;;;-10.54;65.62;100956.95;125408;1125;22453;-75
2021/01/17 10:33:14;;;;;;;74.25;38.38;;;;;;;-10.64;64.90;100964.75;125400;1126;22482;-74
2021/01/17 10:35:46;;;;;;;71.97;38.80;;;;;;;-10.56;66.00;100961.25;125472;1126;22434;-74
2021/01/17 10:38:18;;;;;;;73.22;44.00;;;;;;;-10.35;65.89;100969.50;125436;1126;22902;-75
2021/01/17 10:40:48;;;;;;;83.22;45.65;;;;;;;-10.28;65.50;100971.09;125673;1127;23028;-75
2021/01/17 10:43:36;;;;;;;82.75;48.08;;;;;;;-10.28;65.14;100976.20;125469;1127;22436;-74
2021/01/17 10:46:16;;;;;;;73.43;43.47;;;;;;;-10.22;65.39;100978.65;125485;1127;23223;-73
2021/01/17 10:48:58;;;;;;;72.95;43.30;;;;;;;-10.15;65.11;100982.80;125628;1126;24565;-74
2021/01/17 10:51:46;;;;;;;80.90;45.80;;;;;;;-10.06;65.41;100971.58;125506;1126;22456;-75
2021/01/17 10:54:23;;;;;;;74.58;43.33;;;;;;;-9.98;64.96;100974.89;125397;1130;22444;-78
2021/01/17 10:56:54;;;;;;;72.72;39.15;;;;;;;-9.86;64.91;100972.16;125412;1130;22438;-75
2021/01/17 10:59:27;;;;;;;75.08;41.83;;;;;;;-9.76;64.86;100970.30;125452;1127;22760;-75
2021/01/17 11:01:55;;;;;;;84.40;43.78;;;;;;;-9.42;64.75;100978.26;125427;1126;22431;-76
2021/01/17 11:04:24;;;;;;;79.95;45.67;;;;;;;-8.91;65.51;100967.09;125442;1124;22491;-75
2021/01/17 11:06:57;;;;;;;72.37;42.27;;;;;;;-8.32;66.11;100980.38;125441;1124;22447;-74
2021/01/17 11:09:27;;;;;;;79.47;45.08;;;;;;;-7.99;66.18;100968.55;125429;1127;22428;-76
2021/01/17 11:11:56;;;;;;;87.35;47.45;;;;;;;-7.40;67.40;100965.39;125486;1127;22742;-75
2021/01/17 11:14:25;;;;;;;85.53;48.03;;;;;;;-6.50;69.04;100973.22;125630;1127;23125;-76
2021/01/17 11:16:54;;;;;;;98.72;52.10;;;;;;;-5.81;67.23;100975.42;125502;1127;22421;-76
2021/01/17 11:19:33;;;;;;;79.27;49.00;;;;;;;-5.17;67.33;100968.14;125686;1127;22438;-78
2021/01/17 11:22:02;;;;;;;74.35;46.88;;;;;;;-4.77;65.73;100966.74;125542;1126;22508;-75